Time;durP1;ratioP1;P1;durP2;ratioP2;P2;SDS_P1;SDS_P2;PMS_P1;PMS_P2;Temp;Humidity;BMP_temperature;BMP_pressure;BME280_temperature;BME280_humidity;BME280_pressure;Samples;Min_cycle;Max_cycle;Signal;HPM_P1;HPM_P2
2024/03/14 00:02:09;;;;;;;6.63;6.07;;;;;;;9.74;100.00;101382.81;5099699;28;20296;-78
2024/03/14 00:04:34;;;;;;;7.35;6.75;;;;;;;9.74;100.00;101381.97;5112885;28;20060;-78
2024/03/14 00:07:01;;;;;;;7.70;7.00;;;;;;;9.72;100.00;101384.63;5092765;28;20027;-77
2024/03/14 00:09:26;;;;;;;7.78;6.95;;;;;;;9.66;100.00;101382.19;5113995;28;20326;-77
2024/03/14 00:11:52;;;;;;;7.10;6.50;;;;;;;9.68;100.00;101374.28;5109002;28;20062;-78
2024/03/14 00:14:17;;;;;;;7.03;6.38;;;;;;;9.68;100.00;101374.28;5098557;28;20035;-78
2024/03/14 00:16:43;;;;;;;6.90;6.28;;;;;;;9.67;100.00;101376.03;5106829;28;20255;-78
2024/03/14 00:19:08;;;;;;;6.93;6.32;;;;;;;9.66;100.00;101379.59;5098290;28;20129;-77
2024/03/14 00:21:37;;;;;;;6.80;6.20;;;;;;;9.66;100.00;101374.34;5114336;28;20046;-77
2024/03/14 00:24:02;;;;;;;;;;;;;;;9.67;100.00;101385.66;5097235;28;20039;-78
2024/03/14 00:26:30;;;;;;;6.53;6.00;;;;;;;9.68;100.00;101376.88;5097463;28;19916;-77
2024/03/14 00:28:55;;;;;;;6.45;5.90;;;;;;;9.64;100.00;101378.78;5106987;28;20032;-78
2024/03/14 00:31:21;;;;;;;7.00;6.30;;;;;;;9.63;100.00;101374.44;5097506;28;20054;-77
2024/03/14 00:33:46;;;;;;;7.05;6.35;;;;;;;9.63;100.00;101377.03;5108260;28;20419;-77
2024/03/14 00:36:14;;;;;;;8.15;5.95;;;;;;;9.60;100.00;101382.34;5096440;28;20040;-77
2024/03/14 00:38:41;;;;;;;6.78;6.22;;;;;;;9.58;100.00;101371.06;5102323;28;20035;-77
2024/03/14 00:41:11;;;;;;;6.05;5.45;;;;;;;9.62;100.00;101367.47;5111738;28;20126;-78
2024/03/14 00:43:36;;;;;;;5.85;5.45;;;;;;;9.59;100.00;101373.66;5085230;28;20074;-77
2024/03/14 00:46:02;;;;;;;6.13;5.63;;;;;;;9.57;100.00;101369.38;5102408;28;20044;-77
2024/03/14 00:48:27;;;;;;;6.88;6.20;;;;;;;9.51;100.00;101367.75;5099059;28;20088;-77
2024/03/14 00:50:53;;;;;;;6.57;6.07;;;;;;;9.50;100.00;101365.22;5096409;28;20312;-77
2024/03/14 00:53:18;;;;;;;6.80;6.20;;;;;;;9.51;100.00;101369.53;5106088;28;20040;-77
2024/03/14 00:55:44;;;;;;;6.18;5.68;;;;;;;9.51;100.00;101366.91;5116363;28;20322;-78
2024/03/14 00:58:10;;;;;;;6.60;6.00;;;;;;;9.49;100.00;101356.50;5106345;28;20189;-78
2024/03/14 01:00:36;;;;;;;5.88;5.47;;;;;;;9.51;100.00;101359.91;5107941;28;20035;-77
2024/03/14 01:03:02;;;;;;;6.47;5.82;;;;;;;9.48;100.00;101360.03;5108276;28;20024;-77
2024/03/14 01:05:27;;;;;;;5.88;5.38;;;;;;;9.50;100.00;101363.47;5096482;28;20051;-77
2024/03/14 01:07:53;;;;;;;6.50;5.88;;;;;;;9.45;100.00;101357.50;5090027;28;20020;-78
2024/03/14 01:10:19;;;;;;;7.18;5.97;;;;;;;9.44;100.00;101357.53;5097454;28;20036;-78
2024/03/14 01:12:46;;;;;;;8.75;6.22;;;;;;;9.43;100.00;101346.22;5114735;28;20039;-78
2024/03/14 01:15:13;;;;;;;6.22;5.57;;;;;;;9.43;100.00;101351.44;5112734;28;20258;-78
2024/03/14 01:17:39;;;;;;;5.97;5.47;;;;;;;9.40;100.00;101359.38;5087142;28;20030;-77
2024/03/14 01:20:09;;;;;;;6.53;5.63;;;;;;;9.41;100.00;101348.03;5115074;28;20360;-77
2024/03/14 01:22:36;;;;;;;6.03;5.53;;;;;;;9.44;100.00;101354.91;5087789;28;20039;-78
2024/03/14 01:25:02;;;;;;;6.38;5.78;;;;;;;9.41;100.00;101348.03;5098433;28;20027;-78
2024/03/14 01:27:27;;;;;;;5.30;4.88;;;;;;;9.43;100.00;101356.69;5096791;28;20027;-77
2024/03/14 01:29:53;;;;;;;6.50;5.90;;;;;;;9.39;100.00;101353.28;5106674;28;20032;-78
2024/03/14 01:32:19;;;;;;;5.88;5.38;;;;;;;9.38;100.00;101348.94;5111998;28;20034;-78
2024/03/14 01:34:44;;;;;;;5.20;4.80;;;;;;;9.39;100.00;101344.59;5103554;28;20039;-77
2024/03/14 01:37:12;;;;;;;6.00;5.45;;;;;;;9.38;100.00;101341.09;5100033;28;20032;-78
2024/03/14 01:39:37;;;;;;;5.30;4.80;;;;;;;9.35;100.00;101337.72;5097925;28;20032;-77
2024/03/14 01:42:04;;;;;;;5.53;4.93;;;;;;;9.37;100.00;101334.19;5115690;28;20383;-77
2024/03/14 01:44:44;;;;;;;5.22;4.82;;;;;;;9.35;100.00;101328.16;5105215;28;20094;-78
2024/03/14 01:47:10;;;;;;;5.82;5.32;;;;;;;9.35;100.00;101327.25;5102777;28;20036;-77
2024/03/14 01:49:35;;;;;;;6.10;5.60;;;;;;;9.31;100.00;101323.03;5113130;28;20264;-77
2024/03/14 01:52:01;;;;;;;5.38;4.97;;;;;;;9.33;100.00;101314.25;5113800;28;20317;-77
2024/03/14 01:54:26;;;;;;;6.22;5.30;;;;;;;9.30;100.00;101318.72;5109427;28;20048;-77
2024/03/14 01:56:57;;;;;;;5.85;5.35;;;;;;;9.30;100.00;101316.94;5096187;28;20364;-77
2024/03/14 01:59:30;;;;;;;5.60;5.10;;;;;;;9.27;100.00;101319.63;5113359;28;20035;-78
2024/03/14 02:01:57;;;;;;;5.90;5.40;;;;;;;9.26;100.00;101317.94;5095047;28;20059;-77
2024/03/14 02:04:32;;;;;;;5.72;5.22;;;;;;;9.25;100.00;101315.38;5101118;28;20031;-78
2024/03/14 02:07:23;;;;;;;5.78;5.35;;;;;;;9.28;100.00;101303.06;5112312;28;20027;-78
2024/03/14 02:09:48;;;;;;;6.50;5.22;;;;;;;9.28;100.00;101317.88;5097402;28;20031;-78
2024/03/14 02:12:14;;;;;;;6.07;5.50;;;;;;;9.26;100.00;101304.00;5091268;28;20031;-78
2024/03/14 02:14:39;;;;;;;5.90;5.40;;;;;;;9.24;100.00;101296.22;5095156;28;20066;-78
2024/03/14 02:17:05;;;;;;;5.53;5.10;;;;;;;9.26;100.00;101297.03;5076567;28;20266;-78
2024/03/14 02:19:33;;;;;;;5.97;5.32;;;;;;;9.22;100.00;101292.78;5094692;28;20040;-78
2024/03/14 02:22:00;;;;;;;5.43;5.03;;;;;;;9.21;100.00;101294.53;5112732;28;20043;-78
2024/03/14 02:24:26;;;;;;;8.25;5.32;;;;;;;9.19;100.00;101290.25;5097942;28;20297;-78
2024/03/14 02:26:51;;;;;;;5.47;4.97;;;;;;;9.20;100.00;101284.13;5110447;28;20131;-77
2024/03/14 02:29:17;;;;;;;5.72;5.32;;;;;;;9.21;100.00;101272.78;5110831;28;20308;-77
2024/03/14 02:31:42;;;;;;;5.40;5.00;;;;;;;9.18;100.00;101265.03;5101252;28;20040;-78
2024/03/14 02:34:09;;;;;;;5.55;4.82;;;;;;;9.18;100.00;101271.09;5108766;28;20062;-77
2024/03/14 02:36:35;;;;;;;5.82;5.32;;;;;;;9.17;100.00;101273.78;5103424;28;20048;-78
2024/03/14 02:39:01;;;;;;;5.63;5.13;;;;;;;9.14;100.00;101273.84;5094981;28;20208;-78
2024/03/14 02:41:28;;;;;;;6.25;5.50;;;;;;;9.12;100.00;101265.19;5104533;28;20042;-78
2024/03/14 02:43:56;;;;;;;7.60;6.00;;;;;;;9.08;100.00;101263.53;5115074;28;20072;-77
2024/03/14 02:46:22;;;;;;;6.00;5.50;;;;;;;9.10;100.00;101269.63;5086573;28;20028;-78
2024/03/14 02:48:47;;;;;;;5.50;5.00;;;;;;;9.10;100.00;101260.00;5099409;28;20349;-77
2024/03/14 02:51:13;;;;;;;5.90;5.40;;;;;;;9.08;100.00;101271.38;5094442;28;20040;-79
2024/03/14 02:53:39;;;;;;;7.03;5.53;;;;;;;9.06;100.00;101267.97;5094401;28;20105;-78
2024/03/14 02:56:04;;;;;;;6.00;5.45;;;;;;;9.04;100.00;101270.66;5095090;28;20283;-77
2024/03/14 02:58:30;;;;;;;5.90;5.32;;;;;;;9.04;100.00;101270.66;5113886;28;20036;-77
2024/03/14 03:00:56;;;;;;;6.28;5.78;;;;;;;9.07;100.00;101264.47;5114722;28;20107;-77
2024/03/14 03:03:22;;;;;;;7.03;6.15;;;;;;;9.01;100.00;101265.50;5095996;28;20027;-77
2024/03/14 03:05:49;;;;;;;6.78;6.13;;;;;;;8.99;100.00;101260.31;5094163;28;20234;-78
2024/03/14 03:08:15;;;;;;;5.82;5.40;;;;;;;9.03;100.00;101250.63;5105043;28;20289;-77
2024/03/14 03:10:41;;;;;;;6.28;5.68;;;;;;;9.02;100.00;101248.91;5114536;28;20039;-77
2024/03/14 03:13:07;;;;;;;6.57;6.07;;;;;;;8.98;100.00;101235.06;5100994;28;20043;-78
2024/03/14 03:15:32;;;;;;;6.50;5.88;;;;;;;8.98;100.00;101237.69;5075735;28;20103;-78
2024/03/14 03:17:58;;;;;;;6.40;5.80;;;;;;;8.99;100.00;101241.16;5097121;28;20031;-78
2024/03/14 03:20:23;;;;;;;6.30;5.70;;;;;;;8.99;100.00;101241.16;5094812;28;20344;-77
2024/03/14 03:23:06;;;;;;;7.47;6.80;;;;;;;8.97;100.00;101246.44;5105842;28;20038;-78
2024/03/14 03:25:33;;;;;;;7.95;6.78;;;;;;;8.91;100.00;101243.97;5118139;28;20032;-77
2024/03/14 03:28:02;;;;;;;6.80;6.13;;;;;;;8.92;100.00;101250.91;5091403;28;20032;-78
2024/03/14 03:30:28;;;;;;;7.93;7.00;;;;;;;8.91;100.00;101240.50;5098062;28;20031;-77
2024/03/14 03:32:54;;;;;;;7.07;6.35;;;;;;;8.89;100.00;101243.16;5105296;28;20226;-77
2024/03/14 03:35:21;;;;;;;9.80;7.55;;;;;;;8.88;100.00;101240.59;5117814;28;20383;-77
2024/03/14 03:37:50;;;;;;;7.65;6.85;;;;;;;8.88;100.00;101241.47;5108358;28;20049;-77
2024/03/14 03:40:21;;;;;;;8.73;7.07;;;;;;;8.87;100.00;101241.50;5098114;28;20223;-77
2024/03/14 03:42:47;;;;;;;10.40;7.10;;;;;;;8.81;100.00;101243.38;5115356;28;20361;-78
2024/03/14 03:45:13;;;;;;;7.75;6.93;;;;;;;8.81;100.00;101245.13;5097173;28;20105;-77
2024/03/14 03:47:39;;;;;;;10.05;7.68;;;;;;;8.77;100.00;101241.75;5099018;28;20349;-77
2024/03/14 03:50:08;;;;;;;10.15;7.60;;;;;;;8.78;100.00;101251.28;5111744;28;20366;-77
2024/03/14 03:52:33;;;;;;;8.35;7.53;;;;;;;8.78;100.00;101239.97;5091474;28;20038;-77
2024/03/14 03:54:59;;;;;;;8.35;7.50;;;;;;;8.81;100.00;101234.69;5098202;28;20071;-78
2024/03/14 03:57:25;;;;;;;9.07;8.18;;;;;;;8.80;100.00;101232.97;5098632;28;20334;-77
2024/03/14 03:59:51;;;;;;;8.20;7.03;;;;;;;8.80;100.00;101226.00;5110655;28;20036;-78
2024/03/14 04:02:18;;;;;;;8.30;7.60;;;;;;;8.81;100.00;101232.94;5117115;28;20032;-77
2024/03/14 04:04:46;;;;;;;8.98;8.10;;;;;;;8.79;100.00;101237.34;5115984;28;20059;-77
2024/03/14 04:07:14;;;;;;;10.75;8.73;;;;;;;8.75;100.00;101229.63;5115486;28;20351;-77
2024/03/14 04:09:44;;;;;;;12.43;8.43;;;;;;;8.77;100.00;101235.69;5102002;28;20020;-77
2024/03/14 04:12:11;;;;;;;10.43;8.80;;;;;;;8.75;100.00;101238.31;5113751;28;20157;-77
2024/03/14 04:14:42;;;;;;;10.38;9.10;;;;;;;8.75;100.00;101234.84;5109745;28;20109;-77
2024/03/14 04:17:08;;;;;;;8.77;7.97;;;;;;;8.74;100.00;101230.53;5098218;28;20337;-77
2024/03/14 04:19:34;;;;;;;10.27;9.13;;;;;;;8.75;100.00;101235.72;5104600;28;20043;-77
2024/03/14 04:22:00;;;;;;;9.63;8.63;;;;;;;8.73;100.00;101240.13;5116891;28;20256;-77
2024/03/14 04:24:25;;;;;;;12.23;9.65;;;;;;;8.67;100.00;101231.59;5111756;28;20015;-77
2024/03/14 04:26:51;;;;;;;14.23;10.55;;;;;;;8.63;100.00;101243.88;5096775;28;20036;-77
2024/03/14 04:29:16;;;;;;;14.93;10.40;;;;;;;8.64;100.00;101236.00;5099958;28;20350;-77
2024/03/14 04:31:42;;;;;;;13.35;10.48;;;;;;;8.67;100.00;101234.19;5116424;28;20039;-77
2024/03/14 04:34:09;;;;;;;12.35;10.18;;;;;;;8.66;100.00;101233.34;5115080;28;20104;-77
2024/03/14 04:36:37;;;;;;;12.68;11.30;;;;;;;8.63;100.00;101231.66;5083825;28;20047;-77
2024/03/14 04:39:08;;;;;;;11.93;10.70;;;;;;;8.62;100.00;101235.19;5111817;28;20032;-77
2024/03/14 04:41:34;;;;;;;12.75;11.40;;;;;;;8.59;100.00;101232.66;5107098;28;20036;-77
2024/03/14 04:43:59;;;;;;;18.55;12.65;;;;;;;8.60;100.00;101217.81;5116574;28;20043;-77
2024/03/14 04:46:25;;;;;;;15.32;12.30;;;;;;;8.60;100.00;101217.81;5113423;28;20039;-77
2024/03/14 04:48:51;;;;;;;13.93;11.52;;;;;;;8.63;100.00;101225.59;5098593;28;20024;-77
2024/03/14 04:51:17;;;;;;;14.05;11.45;;;;;;;8.59;100.00;101219.59;5093581;28;20040;-77
2024/03/14 04:53:42;;;;;;;16.27;12.13;;;;;;;8.58;100.00;101215.25;5114049;28;20277;-77
2024/03/14 04:56:08;;;;;;;18.67;12.98;;;;;;;8.57;100.00;101220.53;5116182;28;20028;-77
2024/03/14 04:58:33;;;;;;;19.95;13.00;;;;;;;8.55;100.00;101222.31;5097889;28;20060;-77
2024/03/14 05:00:59;;;;;;;17.25;13.63;;;;;;;8.54;100.00;101221.47;5112280;28;20365;-77
2024/03/14 05:03:28;;;;;;;22.70;13.48;;;;;;;8.54;100.00;101221.47;5106665;28;20203;-77
2024/03/14 05:05:56;;;;;;;16.77;13.40;;;;;;;8.50;100.00;101213.75;5114600;28;20031;-78
2024/03/14 05:08:22;;;;;;;17.08;13.48;;;;;;;8.52;100.00;101210.19;5101885;28;20031;-77
2024/03/14 05:10:47;;;;;;;17.27;13.15;;;;;;;8.51;100.00;101210.25;5099552;28;20066;-77
2024/03/14 05:13:12;;;;;;;16.80;12.85;;;;;;;8.51;100.00;101205.88;5103064;28;20103;-77
2024/03/14 05:15:38;;;;;;;19.35;14.43;;;;;;;8.49;100.00;101206.81;5112898;28;20036;-77
2024/03/14 05:18:05;;;;;;;21.00;14.27;;;;;;;8.47;100.00;101206.84;5085601;28;20052;-77
2024/03/14 05:20:31;;;;;;;21.15;15.32;;;;;;;8.47;100.00;101212.06;5095645;28;20239;-77
2024/03/14 05:22:57;;;;;;;17.45;13.93;;;;;;;8.44;100.00;101217.38;5101950;28;20263;-77
2024/03/14 05:25:23;;;;;;;18.20;13.80;;;;;;;8.45;100.00;101212.09;5097611;28;20035;-77
2024/03/14 05:27:50;;;;;;;18.23;14.30;;;;;;;8.43;100.00;101206.06;5109805;28;20044;-77
2024/03/14 05:30:17;;;;;;;21.35;13.38;;;;;;;8.43;100.00;101206.06;5107921;28;20031;-78
2024/03/14 05:32:44;;;;;;;17.17;12.80;;;;;;;8.48;100.00;101218.13;5087861;28;20292;-77
2024/03/14 05:35:11;;;;;;;19.90;13.85;;;;;;;8.42;100.00;101214.81;5095534;28;20047;-77
2024/03/14 05:37:36;;;;;;;16.98;13.38;;;;;;;8.43;100.00;101215.66;5109701;28;20330;-77
2024/03/14 05:40:02;;;;;;;21.77;13.77;;;;;;;8.42;100.00;101222.66;5114991;28;20070;-77
2024/03/14 05:42:27;;;;;;;19.30;14.70;;;;;;;8.39;100.00;101212.25;5094841;28;20102;-77
2024/03/14 05:44:55;;;;;;;20.15;14.77;;;;;;;8.39;100.00;101214.00;5095604;28;20036;-77
2024/03/14 05:47:20;;;;;;;17.80;13.65;;;;;;;8.36;100.00;101208.84;5096078;28;20023;-77
2024/03/14 05:49:46;;;;;;;17.63;13.48;;;;;;;8.37;100.00;101208.81;5096622;28;20036;-77
2024/03/14 05:52:12;;;;;;;19.10;14.25;;;;;;;8.36;100.00;101208.84;5094591;28;20199;-77
2024/03/14 05:54:38;;;;;;;18.48;13.50;;;;;;;8.37;100.00;101207.97;5108358;28;20055;-77
2024/03/14 05:57:04;;;;;;;15.63;12.75;;;;;;;8.36;100.00;101209.69;5114207;28;20459;-77
2024/03/14 05:59:30;;;;;;;17.25;13.35;;;;;;;8.37;100.00;101210.59;5110123;28;20036;-77
2024/03/14 06:01:56;;;;;;;20.38;13.98;;;;;;;8.36;100.00;101209.69;5101316;28;20050;-77
2024/03/14 06:04:22;;;;;;;21.73;13.45;;;;;;;8.37;100.00;101211.44;5097897;28;20031;-77
2024/03/14 06:06:51;;;;;;;17.45;13.77;;;;;;;8.34;100.00;101214.09;5105515;28;20039;-77
2024/03/14 06:09:17;;;;;;;18.27;13.85;;;;;;;8.37;100.00;101205.38;5109357;28;20362;-78
2024/03/14 06:11:42;;;;;;;18.75;14.15;;;;;;;8.34;100.00;101208.88;5105953;28;20261;-78
2024/03/14 06:14:08;;;;;;;20.98;14.40;;;;;;;8.38;100.00;101209.66;5095662;28;20032;-77
2024/03/14 06:16:33;;;;;;;19.25;14.30;;;;;;;8.35;100.00;101208.00;5108615;28;20047;-77
2024/03/14 06:18:59;;;;;;;19.25;14.25;;;;;;;8.34;100.00;101202.81;5104648;28;20486;-77
2024/03/14 06:21:24;;;;;;;17.85;13.95;;;;;;;8.34;100.00;101208.03;5114727;28;20062;-78
2024/03/14 06:23:50;;;;;;;21.60;14.40;;;;;;;8.35;100.00;101200.19;5112763;28;20460;-78
2024/03/14 06:26:16;;;;;;;17.42;14.10;;;;;;;8.36;100.00;101201.03;5095699;28;20380;-77
2024/03/14 06:28:42;;;;;;;18.52;14.05;;;;;;;8.36;100.00;101196.66;5102375;28;20115;-77
2024/03/14 06:31:07;;;;;;;19.23;13.77;;;;;;;8.37;100.00;101198.38;5098469;28;20036;-77
2024/03/14 06:33:33;;;;;;;20.45;14.18;;;;;;;8.37;100.00;101202.75;5094114;28;20323;-77
2024/03/14 06:35:58;;;;;;;18.90;14.23;;;;;;;8.39;100.00;101200.97;5095400;28;20039;-78
2024/03/14 06:38:24;;;;;;;18.83;13.45;;;;;;;8.38;100.00;101197.47;5099154;28;20050;-77
2024/03/14 06:40:52;;;;;;;17.25;14.35;;;;;;;8.38;100.00;101205.28;5090743;28;20063;-77
2024/03/14 06:43:24;;;;;;;23.52;14.77;;;;;;;8.38;100.00;101199.22;5109411;28;20032;-77
2024/03/14 06:45:49;;;;;;;21.65;15.02;;;;;;;8.38;100.00;101194.00;5103415;28;20069;-77
2024/03/14 06:48:15;;;;;;;19.25;14.25;;;;;;;8.40;100.00;101194.81;5112204;28;20039;-78
2024/03/14 06:50:41;;;;;;;18.95;13.48;;;;;;;8.41;100.00;101200.00;5102810;28;20046;-77
2024/03/14 06:53:07;;;;;;;19.40;14.48;;;;;;;8.43;100.00;101202.63;5104173;28;20222;-77
2024/03/14 06:55:33;;;;;;;15.80;12.63;;;;;;;8.46;100.00;101207.75;5105246;28;20138;-77
2024/03/14 06:57:59;;;;;;;19.63;14.35;;;;;;;8.49;100.00;101206.81;5106424;28;20059;-77
2024/03/14 07:00:24;;;;;;;18.38;14.15;;;;;;;8.46;100.00;101205.16;5108882;28;20365;-77
2024/03/14 07:02:50;;;;;;;16.52;13.30;;;;;;;8.49;100.00;101205.06;5106687;28;20509;-77
2024/03/14 07:05:15;;;;;;;17.55;13.98;;;;;;;8.51;100.00;101205.88;5108074;28;20023;-77
2024/03/14 07:07:47;;;;;;;18.67;14.75;;;;;;;8.53;100.00;101201.50;5109674;28;20225;-77
2024/03/14 07:10:16;;;;;;;18.33;13.57;;;;;;;8.54;100.00;101197.97;5088816;28;20028;-77
2024/03/14 07:12:45;;;;;;;17.00;13.05;;;;;;;8.58;100.00;101202.19;5109739;28;20330;-77
2024/03/14 07:15:12;;;;;;;19.55;13.63;;;;;;;8.59;100.00;101195.25;5107668;28;20047;-77
2024/03/14 07:17:37;;;;;;;17.75;13.02;;;;;;;8.60;100.00;101197.81;5107766;28;20038;-77
2024/03/14 07:20:10;;;;;;;20.85;13.05;;;;;;;8.63;100.00;101202.94;5093086;28;20035;-77
2024/03/14 07:22:39;;;;;;;21.02;13.57;;;;;;;8.62;100.00;101201.25;5097783;28;20044;-77
2024/03/14 07:25:08;;;;;;;18.60;12.85;;;;;;;8.63;100.00;101202.09;5110162;28;20088;-77
2024/03/14 07:27:34;;;;;;;20.15;12.85;;;;;;;8.60;100.00;101203.03;5105905;28;20303;-77
2024/03/14 07:30:00;;;;;;;20.15;13.90;;;;;;;8.65;100.00;101211.59;5097608;28;20027;-77
2024/03/14 07:32:26;;;;;;;15.68;12.75;;;;;;;8.70;100.00;101208.88;5109303;28;20103;-77
2024/03/14 07:34:52;;;;;;;14.70;11.60;;;;;;;8.73;100.00;101206.19;5117525;28;20032;-77
2024/03/14 07:37:18;;;;;;;18.30;13.15;;;;;;;8.73;100.00;101200.06;5111343;28;20092;-77
2024/03/14 07:39:44;;;;;;;15.45;12.40;;;;;;;8.73;100.00;101200.06;5106548;28;20447;-78
2024/03/14 07:42:09;;;;;;;15.25;11.60;;;;;;;8.80;100.00;101196.41;5111153;28;20068;-77
2024/03/14 07:44:35;;;;;;;12.32;10.75;;;;;;;8.82;100.00;101197.22;5112478;28;20439;-78
2024/03/14 07:47:03;;;;;;;15.30;11.95;;;;;;;8.84;100.00;101198.91;5117575;28;20046;-77
2024/03/14 07:49:28;;;;;;;15.20;12.07;;;;;;;8.87;100.00;101191.88;5117376;28;20028;-77
2024/03/14 07:51:55;;;;;;;18.38;12.15;;;;;;;8.87;100.00;101194.50;5117069;28;20310;-77
2024/03/14 07:54:22;;;;;;;17.83;12.45;;;;;;;8.92;100.00;101193.44;5098733;28;20058;-77
2024/03/14 07:56:49;;;;;;;12.25;10.98;;;;;;;8.96;100.00;101199.44;5110517;28;20103;-78
2024/03/14 07:59:14;;;;;;;14.80;11.75;;;;;;;8.97;100.00;101195.94;5113554;28;20035;-77
2024/03/14 08:01:44;;;;;;;13.95;10.85;;;;;;;9.01;100.00;101200.19;5107469;28;20217;-77
2024/03/14 08:04:13;;;;;;;14.75;11.05;;;;;;;9.03;100.00;101196.59;5099855;28;20095;-77
2024/03/14 08:06:43;;;;;;;14.57;10.80;;;;;;;9.05;100.00;101193.97;5107177;27;20350;-78
2024/03/14 08:09:11;;;;;;;14.68;10.70;;;;;;;9.10;100.00;101204.28;5111691;27;20024;-78
2024/03/14 08:11:39;;;;;;;10.60;9.53;;;;;;;9.12;100.00;101202.50;5115146;27;20039;-77
2024/03/14 08:14:06;;;;;;;12.52;10.15;;;;;;;9.15;100.00;101202.38;5106209;28;20099;-77
2024/03/14 08:16:32;;;;;;;13.30;10.20;;;;;;;9.13;100.00;101199.84;5108733;28;20061;-77
2024/03/14 08:18:57;;;;;;;14.57;9.77;;;;;;;9.15;100.00;101203.25;5108918;28;20043;-77
2024/03/14 08:21:22;;;;;;;13.18;9.32;;;;;;;9.18;100.00;101211.00;5087177;28;20028;-77
2024/03/14 08:23:48;;;;;;;9.85;8.77;;;;;;;9.23;100.00;101201.25;5104992;28;20090;-77
2024/03/14 08:26:16;;;;;;;10.13;8.57;;;;;;;9.27;100.00;101196.81;5106022;27;20335;-77
2024/03/14 08:28:43;;;;;;;9.82;8.25;;;;;;;9.31;100.00;101198.41;5111088;27;20342;-77
2024/03/14 08:31:15;;;;;;;9.93;8.32;;;;;;;9.34;100.00;101189.66;5084948;28;20528;-77
2024/03/14 08:33:44;;;;;;;9.80;8.68;;;;;;;9.35;100.00;101187.00;5110140;28;20039;-77
2024/03/14 08:36:16;;;;;;;10.07;8.27;;;;;;;9.38;100.00;101192.09;5110747;28;20094;-78
2024/03/14 08:38:41;;;;;;;9.30;8.02;;;;;;;9.44;100.00;101187.59;5092883;28;20032;-77
2024/03/14 08:41:07;;;;;;;9.52;8.13;;;;;;;9.48;100.00;101194.44;5110153;28;20031;-77
2024/03/14 08:43:33;;;;;;;9.38;8.40;;;;;;;9.52;100.00;101202.16;5111262;28;20039;-77
2024/03/14 08:46:00;;;;;;;8.20;7.40;;;;;;;9.56;100.00;101195.06;5111976;28;20035;-77
2024/03/14 08:48:26;;;;;;;11.25;7.88;;;;;;;9.59;100.00;101195.84;5108410;28;20039;-77
2024/03/14 08:50:51;;;;;;;9.63;7.57;;;;;;;9.62;100.00;101194.88;5110654;28;20047;-77
2024/03/14 08:53:17;;;;;;;9.07;7.30;;;;;;;9.64;100.00;101198.31;5111321;28;20039;-78
2024/03/14 08:55:52;;;;;;;7.40;6.80;;;;;;;9.71;100.00;101199.81;5092877;28;20046;-78
2024/03/14 08:58:18;;;;;;;8.65;6.97;;;;;;;9.75;100.00;101187.50;5109777;28;20057;-77
2024/03/14 09:00:44;;;;;;;8.07;6.85;;;;;;;9.79;100.00;101189.13;5092270;28;20068;-77
2024/03/14 09:03:09;;;;;;;8.70;6.40;;;;;;;9.84;100.00;101192.47;5110311;28;20371;-78
2024/03/14 09:05:34;;;;;;;7.38;6.63;;;;;;;9.89;100.00;101197.53;5105024;28;20027;-77
2024/03/14 09:08:00;;;;;;;8.02;6.90;;;;;;;9.94;100.00;101193.88;5108796;28;20039;-77
2024/03/14 09:10:25;;;;;;;6.55;5.95;;;;;;;9.96;100.00;101196.44;5106761;28;20387;-77
2024/03/14 09:12:52;;;;;;;6.30;5.72;;;;;;;10.02;100.00;101196.22;5110471;28;20088;-78
2024/03/14 09:15:20;;;;;;;6.25;5.70;;;;;;;10.06;100.00;101190.00;5109962;28;20230;-77
2024/03/14 09:17:47;;;;;;;8.32;6.15;;;;;;;10.09;100.00;101189.03;5109703;28;20027;-77
2024/03/14 09:20:21;;;;;;;8.45;5.68;;;;;;;10.12;100.00;101187.16;5109952;28;20032;-78
2024/03/14 09:22:54;;;;;;;7.70;5.90;;;;;;;10.17;100.00;101185.25;5107457;28;20248;-78
2024/03/14 09:25:21;;;;;;;6.35;5.72;;;;;;;10.21;100.00;101193.03;5110631;28;20221;-77
2024/03/14 09:27:46;;;;;;;6.35;5.78;;;;;;;10.26;100.00;101188.47;5108536;28;20043;-77
2024/03/14 09:30:12;;;;;;;6.28;5.68;;;;;;;10.29;100.00;101176.13;5108988;27;20039;-77
2024/03/14 09:32:40;;;;;;;6.47;5.88;;;;;;;10.34;100.00;101179.47;5107483;27;20039;-77
2024/03/14 09:35:07;;;;;;;7.50;5.32;;;;;;;10.41;100.00;101182.75;5109750;28;20031;-77
2024/03/14 09:37:33;;;;;;;5.10;4.68;;;;;;;10.44;100.00;101173.94;5109445;28;20035;-77
2024/03/14 09:39:59;;;;;;;5.63;5.03;;;;;;;10.48;100.00;101162.47;5109246;28;20081;-77
2024/03/14 09:42:25;;;;;;;5.53;5.03;;;;;;;10.48;100.00;101163.31;5109019;28;20230;-78
2024/03/14 09:44:51;;;;;;;5.45;4.95;;;;;;;10.55;100.00;101166.53;5109559;28;21212;-77
2024/03/14 09:47:37;;;;;;;5.38;4.88;;;;;;;10.59;100.00;101164.66;5108991;28;20051;-77
2024/03/14 09:50:05;;;;;;;6.28;4.70;;;;;;;10.62;100.00;101162.78;5109452;28;20366;-77
2024/03/14 09:52:33;;;;;;;8.20;4.43;;;;;;;10.66;100.00;101159.19;5109835;28;20137;-77
2024/03/14 09:55:01;;;;;;;8.75;4.82;;;;;;;10.72;100.00;101163.34;5109451;28;20120;-77
2024/03/14 09:57:27;;;;;;;4.55;4.15;;;;;;;10.78;100.00;101152.63;5108806;28;20253;-78
2024/03/14 09:59:55;;;;;;;4.60;4.20;;;;;;;10.82;100.00;101158.59;5109198;28;20031;-78
2024/03/14 10:02:24;;;;;;;5.20;4.23;;;;;;;10.86;100.00;101161.06;5108223;28;20030;-77
2024/03/14 10:04:49;;;;;;;20.55;4.63;;;;;;;10.88;100.00;101168.88;5109200;28;20376;-78
2024/03/14 10:07:16;;;;;;;6.53;4.40;;;;;;;10.93;100.00;101170.44;5107445;28;20031;-77
2024/03/14 10:09:43;;;;;;;4.80;3.70;;;;;;;10.97;100.00;101155.44;5109517;28;20023;-77
2024/03/14 10:12:12;;;;;;;4.40;3.80;;;;;;;11.00;100.00;101154.47;5109007;28;20035;-77
2024/03/14 10:14:41;;;;;;;4.18;3.85;;;;;;;11.02;100.00;101156.09;5109158;28;20072;-77
2024/03/14 10:17:10;;;;;;;4.60;4.20;;;;;;;11.09;100.00;101154.97;5107821;28;20187;-77
2024/03/14 10:19:37;;;;;;;7.07;3.67;;;;;;;11.13;100.00;101156.56;5104260;28;20027;-77
2024/03/14 10:22:05;;;;;;;6.50;3.80;;;;;;;11.18;100.00;101161.63;5088016;28;20027;-77
2024/03/14 10:24:31;;;;;;;5.50;3.40;;;;;;;11.26;100.00;101159.59;5105178;28;20031;-77
2024/03/14 10:26:57;;;;;;;3.85;3.40;;;;;;;11.30;100.00;101152.44;5107632;28;20041;-77
2024/03/14 10:29:25;;;;;;;4.25;3.85;;;;;;;11.33;100.00;101161.06;5108517;28;20031;-77
2024/03/14 10:31:51;;;;;;;6.03;3.88;;;;;;;11.38;100.00;101162.63;5109235;28;20036;-77
2024/03/14 10:34:16;;;;;;;3.55;3.25;;;;;;;11.42;100.00;101159.81;5108003;28;20034;-77
2024/03/14 10:36:43;;;;;;;6.28;3.25;;;;;;;11.48;100.00;101162.22;5109282;28;20096;-77
2024/03/14 10:39:18;;;;;;;3.25;3.05;;;;;;;11.55;100.00;101159.34;5107282;28;20039;-77
2024/03/14 10:41:47;;;;;;;3.78;3.47;;;;;;;11.53;100.00;101162.03;5105793;28;20031;-77
2024/03/14 10:44:18;;;;;;;3.90;3.33;;;;;;;11.53;100.00;101162.03;5103145;28;20423;-77
2024/03/14 10:46:50;;;;;;;3.22;2.92;;;;;;;11.55;100.00;101165.47;5108382;28;20326;-77
2024/03/14 10:49:20;;;;;;;6.50;3.67;;;;;;;11.58;100.00;101167.09;5106987;28;20999;-77
2024/03/14 10:51:49;;;;;;;14.48;3.72;;;;;;;11.66;100.00;101160.63;5107620;28;20040;-77
2024/03/14 10:54:16;;;;;;;17.55;3.83;;;;;;;11.69;100.00;101159.66;5105991;28;20050;-78
2024/03/14 10:56:45;;;;;;;4.45;3.50;;;;;;;11.73;100.00;101161.22;5087688;28;20070;-77
2024/03/14 10:59:12;;;;;;;8.60;3.65;;;;;;;11.80;100.00;101153.97;5106379;28;20028;-77
2024/03/14 11:01:39;;;;;;;15.98;3.35;;;;;;;11.83;100.00;101162.56;5102891;28;20039;-77
2024/03/14 11:04:09;;;;;;;5.30;2.90;;;;;;;11.86;100.00;101158.97;5107713;28;20043;-77
2024/03/14 11:06:37;;;;;;;6.53;3.88;;;;;;;11.87;100.00;101156.28;5108584;28;20035;-77
2024/03/14 11:09:08;;;;;;;7.20;3.70;;;;;;;11.94;100.00;101151.66;5106198;28;20256;-77
2024/03/14 11:11:37;;;;;;;5.53;3.53;;;;;;;12.01;100.00;101147.03;5108776;28;20346;-77
2024/03/14 11:14:05;;;;;;;;;;;;;;;12.03;100.00;101145.19;5108195;28;20317;-77
2024/03/14 11:16:32;;;;;;;3.30;3.00;;;;;;;12.07;100.00;101137.09;5107495;28;19915;-77
2024/03/14 11:18:59;;;;;;;5.68;3.17;;;;;;;12.11;100.00;101140.44;5107381;28;20023;-77